Accueil
METAR-TAF:

METAR-TAF

Aéroports :

Sakhon Nakhon, Thaïlande

latitude: 17-11-42N, longitude: 104-07-08E, altitude: 161 m

Observation

Le bulletin a été fait il y a 2 heures et 0 minutes, à 15:00 UTC
Vent calme
Température 30°C
Humidité 55%
Pression 1008 hPa
Visibilité: 8000 m

METAR: VTUI 311500Z 00000KT 8000 NSC 30/20 Q1008 NOSIG

Heure: 00:00 (17:00 UTC)

Prévision

Le bulletin a été fait il y a 6 heures et 0 minutes, à 11:00 UTC
Prévision valable du 31 à 12 UTC au 01 à 12 UTC
Vent 6 kt de sud/sud-est
Visibilité: 8000 m
Evoluant progressivement
du 31 à 21 UTC au 31 à 23 UTC
Visibilité: 5000 m
brume
Evoluant progressivement
du 01 à 04 UTC au 01 à 06 UTC
Visibilité: 9000 m
Quelques nuages à une hauteur de 3000 ft

TAF: VTUI 311100Z 3112/0112 16006KT 8000 NSC BECMG 3121/3123 5000 BR BECMG 0104/0106 9000 NSW FEW030

Observations et prévisions météorologiques de plus de 4000 aéroports (messages METAR et TAF).

Les stations disponibles sont représentées par des disques jaunes et rouges sur la carte.

Passer la souris dessus pour voir le nom de la station.

Cliquer dessus pour voir les observations et prévisions météorologiques.

Pour changer de carte: cliquez sur les boutons verts avec une croix noire pour zoomer, sur le bouton vert avec un tiret pour effectuer un zoom arrière, ou sur les flèches vertes pour les cartes adjacentes.


METAR-TAF: